sensor_id;sensor_type;location;lat;lon;timestamp;P1;durP1;ratioP1;P2;durP2;ratioP2
82410;SDS011;72054;55.772;49.096;2023-08-08T00:00:06;7.25;;;2.85;;
82410;SDS011;72054;55.772;49.096;2023-08-08T00:01:08;4.72;;;2.67;;
82410;SDS011;72054;55.772;49.096;2023-08-08T00:02:09;5.43;;;2.80;;
82410;SDS011;72054;55.772;49.096;2023-08-08T00:03:09;4.78;;;2.60;;
82410;SDS011;72054;55.772;49.096;2023-08-08T00:04:10;6.15;;;2.70;;
82410;SDS011;72054;55.772;49.096;2023-08-08T00:05:10;4.90;;;2.72;;
82410;SDS011;72054;55.772;49.096;2023-08-08T00:06:11;6.03;;;2.90;;
82410;SDS011;72054;55.772;49.096;2023-08-08T00:07:11;4.15;;;2.80;;
82410;SDS011;72054;55.772;49.096;2023-08-08T00:08:12;4.63;;;3.22;;
82410;SDS011;72054;55.772;49.096;2023-08-08T00:09:12;5.13;;;2.60;;
82410;SDS011;72054;55.772;49.096;2023-08-08T00:10:13;4.82;;;2.90;;
82410;SDS011;72054;55.772;49.096;2023-08-08T00:11:14;4.82;;;2.90;;
82410;SDS011;72054;55.772;49.096;2023-08-08T00:12:14;5.07;;;2.75;;
82410;SDS011;72054;55.772;49.096;2023-08-08T00:13:15;6.00;;;2.75;;
82410;SDS011;72054;55.772;49.096;2023-08-08T00:14:15;5.22;;;2.90;;
82410;SDS011;72054;55.772;49.096;2023-08-08T00:15:16;4.57;;;3.00;;
82410;SDS011;72054;55.772;49.096;2023-08-08T00:16:16;4.15;;;2.83;;
82410;SDS011;72054;55.772;49.096;2023-08-08T00:17:17;4.60;;;2.83;;
82410;SDS011;72054;55.772;49.096;2023-08-08T00:18:17;6.18;;;3.17;;
82410;SDS011;72054;55.772;49.096;2023-08-08T00:19:18;5.07;;;2.90;;
82410;SDS011;72054;55.772;49.096;2023-08-08T00:20:18;5.55;;;2.60;;
82410;SDS011;72054;55.772;49.096;2023-08-08T00:21:19;5.30;;;2.80;;
82410;SDS011;72054;55.772;49.096;2023-08-08T00:22:20;4.95;;;2.80;;
82410;SDS011;72054;55.772;49.096;2023-08-08T00:23:21;3.92;;;2.88;;
82410;SDS011;72054;55.772;49.096;2023-08-08T00:24:21;4.95;;;2.58;;
82410;SDS011;72054;55.772;49.096;2023-08-08T00:25:22;4.75;;;2.90;;
82410;SDS011;72054;55.772;49.096;2023-08-08T00:26:22;4.85;;;2.80;;
82410;SDS011;72054;55.772;49.096;2023-08-08T00:27:23;4.18;;;2.85;;
82410;SDS011;72054;55.772;49.096;2023-08-08T00:28:23;3.97;;;2.70;;
82410;SDS011;72054;55.772;49.096;2023-08-08T00:29:24;5.60;;;2.83;;
82410;SDS011;72054;55.772;49.096;2023-08-08T00:30:25;4.50;;;2.75;;
82410;SDS011;72054;55.772;49.096;2023-08-08T00:31:25;4.13;;;2.85;;
82410;SDS011;72054;55.772;49.096;2023-08-08T00:32:26;4.10;;;2.50;;
82410;SDS011;72054;55.772;49.096;2023-08-08T00:33:26;4.05;;;2.42;;
82410;SDS011;72054;55.772;49.096;2023-08-08T00:34:27;4.60;;;2.70;;
82410;SDS011;72054;55.772;49.096;2023-08-08T00:35:27;5.10;;;2.60;;
82410;SDS011;72054;55.772;49.096;2023-08-08T00:36:28;4.75;;;2.95;;
82410;SDS011;72054;55.772;49.096;2023-08-08T00:37:28;3.85;;;2.47;;
82410;SDS011;72054;55.772;49.096;2023-08-08T00:38:29;3.90;;;2.83;;
82410;SDS011;72054;55.772;49.096;2023-08-08T00:39:29;5.63;;;2.58;;
82410;SDS011;72054;55.772;49.096;2023-08-08T00:40:30;4.65;;;2.80;;
82410;SDS011;72054;55.772;49.096;2023-08-08T00:41:30;4.07;;;2.78;;
82410;SDS011;72054;55.772;49.096;2023-08-08T00:42:31;5.20;;;2.63;;
82410;SDS011;72054;55.772;49.096;2023-08-08T00:43:32;3.63;;;2.60;;
82410;SDS011;72054;55.772;49.096;2023-08-08T00:44:32;4.72;;;2.50;;
82410;SDS011;72054;55.772;49.096;2023-08-08T00:45:32;4.45;;;2.63;;
82410;SDS011;72054;55.772;49.096;2023-08-08T00:46:34;4.10;;;2.70;;
82410;SDS011;72054;55.772;49.096;2023-08-08T00:47:35;4.20;;;3.00;;
82410;SDS011;72054;55.772;49.096;2023-08-08T00:48:35;4.28;;;2.95;;
82410;SDS011;72054;55.772;49.096;2023-08-08T00:49:36;6.53;;;3.00;;
82410;SDS011;72054;55.772;49.096;2023-08-08T00:51:38;4.68;;;2.85;;
82410;SDS011;72054;55.772;49.096;2023-08-08T00:52:38;5.15;;;2.60;;
82410;SDS011;72054;55.772;49.096;2023-08-08T00:53:41;4.22;;;3.05;;
82410;SDS011;72054;55.772;49.096;2023-08-08T00:54:42;4.43;;;3.03;;
82410;SDS011;72054;55.772;49.096;2023-08-08T00:55:42;4.55;;;2.78;;
82410;SDS011;72054;55.772;49.096;2023-08-08T00:56:43;5.97;;;2.97;;
82410;SDS011;72054;55.772;49.096;2023-08-08T00:57:44;5.15;;;2.70;;
82410;SDS011;72054;55.772;49.096;2023-08-08T00:59:46;4.10;;;2.67;;
82410;SDS011;72054;55.772;49.096;2023-08-08T01:00:47;5.25;;;2.80;;
82410;SDS011;72054;55.772;49.096;2023-08-08T01:01:47;3.70;;;2.60;;
82410;SDS011;72054;55.772;49.096;2023-08-08T01:02:48;3.58;;;2.45;;
82410;SDS011;72054;55.772;49.096;2023-08-08T01:03:48;4.22;;;2.95;;
82410;SDS011;72054;55.772;49.096;2023-08-08T01:05:53;5.95;;;2.70;;
82410;SDS011;72054;55.772;49.096;2023-08-08T01:08:27;3.95;;;2.70;;
82410;SDS011;72054;55.772;49.096;2023-08-08T01:09:43;4.60;;;2.67;;
82410;SDS011;72054;55.772;49.096;2023-08-08T01:10:48;3.63;;;2.50;;
82410;SDS011;72054;55.772;49.096;2023-08-08T01:11:49;3.83;;;2.60;;
82410;SDS011;72054;55.772;49.096;2023-08-08T01:12:53;3.75;;;2.60;;
82410;SDS011;72054;55.772;49.096;2023-08-08T01:13:56;7.30;;;3.35;;
82410;SDS011;72054;55.772;49.096;2023-08-08T01:14:58;6.38;;;3.00;;
82410;SDS011;72054;55.772;49.096;2023-08-08T01:15:59;6.45;;;3.63;;
82410;SDS011;72054;55.772;49.096;2023-08-08T01:17:00;4.95;;;2.60;;
82410;SDS011;72054;55.772;49.096;2023-08-08T01:18:05;6.68;;;2.80;;
82410;SDS011;72054;55.772;49.096;2023-08-08T01:19:07;4.20;;;2.58;;
82410;SDS011;72054;55.772;49.096;2023-08-08T01:20:11;4.03;;;2.72;;
82410;SDS011;72054;55.772;49.096;2023-08-08T01:21:16;5.93;;;3.08;;
82410;SDS011;72054;55.772;49.096;2023-08-08T01:22:22;4.13;;;2.83;;
82410;SDS011;72054;55.772;49.096;2023-08-08T01:23:47;8.57;;;3.00;;
82410;SDS011;72054;55.772;49.096;2023-08-08T01:24:56;5.20;;;2.83;;
82410;SDS011;72054;55.772;49.096;2023-08-08T01:25:57;4.95;;;2.90;;
82410;SDS011;72054;55.772;49.096;2023-08-08T01:26:59;4.20;;;2.85;;
82410;SDS011;72054;55.772;49.096;2023-08-08T01:28:00;6.25;;;2.80;;
82410;SDS011;72054;55.772;49.096;2023-08-08T01:29:01;4.07;;;2.75;;
82410;SDS011;72054;55.772;49.096;2023-08-08T01:30:02;4.38;;;2.83;;
82410;SDS011;72054;55.772;49.096;2023-08-08T01:31:04;3.67;;;2.40;;
82410;SDS011;72054;55.772;49.096;2023-08-08T01:32:04;6.80;;;2.95;;
82410;SDS011;72054;55.772;49.096;2023-08-08T01:33:05;4.72;;;2.67;;
82410;SDS011;72054;55.772;49.096;2023-08-08T01:34:06;4.95;;;3.08;;
82410;SDS011;72054;55.772;49.096;2023-08-08T01:35:07;6.50;;;2.97;;
82410;SDS011;72054;55.772;49.096;2023-08-08T01:36:10;4.25;;;2.75;;
82410;SDS011;72054;55.772;49.096;2023-08-08T01:38:46;3.45;;;2.70;;
82410;SDS011;72054;55.772;49.096;2023-08-08T01:39:51;3.85;;;2.50;;
82410;SDS011;72054;55.772;49.096;2023-08-08T01:40:53;5.63;;;2.92;;
82410;SDS011;72054;55.772;49.096;2023-08-08T01:41:56;4.68;;;2.88;;
82410;SDS011;72054;55.772;49.096;2023-08-08T01:42:58;4.05;;;2.70;;
82410;SDS011;72054;55.772;49.096;2023-08-08T01:43:59;4.18;;;2.63;;
82410;SDS011;72054;55.772;49.096;2023-08-08T01:45:03;3.53;;;2.70;;
82410;SDS011;72054;55.772;49.096;2023-08-08T01:46:04;5.55;;;3.22;;
82410;SDS011;72054;55.772;49.096;2023-08-08T01:48:10;4.32;;;2.67;;
82410;SDS011;72054;55.772;49.096;2023-08-08T01:49:11;4.68;;;2.55;;
82410;SDS011;72054;55.772;49.096;2023-08-08T01:50:11;3.75;;;2.55;;
82410;SDS011;72054;55.772;49.096;2023-08-08T01:51:12;4.15;;;3.03;;
82410;SDS011;72054;55.772;49.096;2023-08-08T01:52:12;5.30;;;2.75;;
82410;SDS011;72054;55.772;49.096;2023-08-08T01:53:13;5.75;;;3.05;;
82410;SDS011;72054;55.772;49.096;2023-08-08T01:54:14;6.82;;;2.50;;
82410;SDS011;72054;55.772;49.096;2023-08-08T01:55:14;3.65;;;2.58;;
82410;SDS011;72054;55.772;49.096;2023-08-08T01:56:15;7.15;;;3.10;;
82410;SDS011;72054;55.772;49.096;2023-08-08T01:57:15;6.45;;;2.80;;
82410;SDS011;72054;55.772;49.096;2023-08-08T01:58:16;3.15;;;2.65;;
82410;SDS011;72054;55.772;49.096;2023-08-08T01:59:16;4.75;;;2.75;;
82410;SDS011;72054;55.772;49.096;2023-08-08T02:00:17;5.07;;;2.63;;
82410;SDS011;72054;55.772;49.096;2023-08-08T02:01:17;4.35;;;2.65;;
82410;SDS011;72054;55.772;49.096;2023-08-08T02:02:18;4.82;;;2.70;;
82410;SDS011;72054;55.772;49.096;2023-08-08T02:03:18;3.83;;;2.50;;
82410;SDS011;72054;55.772;49.096;2023-08-08T02:04:19;4.25;;;2.78;;
82410;SDS011;72054;55.772;49.096;2023-08-08T02:05:20;5.18;;;2.60;;
82410;SDS011;72054;55.772;49.096;2023-08-08T02:06:21;4.82;;;2.70;;
82410;SDS011;72054;55.772;49.096;2023-08-08T02:07:21;4.15;;;2.88;;
82410;SDS011;72054;55.772;49.096;2023-08-08T02:08:22;4.43;;;2.63;;
82410;SDS011;72054;55.772;49.096;2023-08-08T02:09:22;4.13;;;2.67;;
82410;SDS011;72054;55.772;49.096;2023-08-08T02:10:23;4.60;;;2.50;;
82410;SDS011;72054;55.772;49.096;2023-08-08T02:11:23;4.60;;;2.42;;
82410;SDS011;72054;55.772;49.096;2023-08-08T02:12:24;4.40;;;2.75;;
82410;SDS011;72054;55.772;49.096;2023-08-08T02:13:25;3.15;;;2.30;;
82410;SDS011;72054;55.772;49.096;2023-08-08T02:14:25;4.85;;;2.85;;
82410;SDS011;72054;55.772;49.096;2023-08-08T02:15:26;4.47;;;2.45;;
82410;SDS011;72054;55.772;49.096;2023-08-08T02:16:26;4.18;;;2.63;;
82410;SDS011;72054;55.772;49.096;2023-08-08T02:17:28;6.20;;;2.75;;
82410;SDS011;72054;55.772;49.096;2023-08-08T02:18:30;4.03;;;2.50;;
82410;SDS011;72054;55.772;49.096;2023-08-08T02:19:31;4.15;;;2.72;;
82410;SDS011;72054;55.772;49.096;2023-08-08T02:20:32;3.83;;;2.47;;
82410;SDS011;72054;55.772;49.096;2023-08-08T02:21:33;4.90;;;2.95;;
82410;SDS011;72054;55.772;49.096;2023-08-08T02:22:34;4.00;;;2.80;;
82410;SDS011;72054;55.772;49.096;2023-08-08T02:23:34;3.30;;;2.67;;
82410;SDS011;72054;55.772;49.096;2023-08-08T02:24:35;4.68;;;3.03;;
82410;SDS011;72054;55.772;49.096;2023-08-08T02:25:35;5.43;;;2.88;;
82410;SDS011;72054;55.772;49.096;2023-08-08T02:26:36;4.20;;;2.95;;
82410;SDS011;72054;55.772;49.096;2023-08-08T02:27:36;5.93;;;2.60;;
82410;SDS011;72054;55.772;49.096;2023-08-08T02:28:37;3.35;;;2.55;;
82410;SDS011;72054;55.772;49.096;2023-08-08T02:29:37;5.35;;;2.97;;
82410;SDS011;72054;55.772;49.096;2023-08-08T02:30:38;3.95;;;2.70;;
82410;SDS011;72054;55.772;49.096;2023-08-08T02:31:39;4.93;;;3.00;;
82410;SDS011;72054;55.772;49.096;2023-08-08T02:32:39;4.25;;;2.60;;
82410;SDS011;72054;55.772;49.096;2023-08-08T02:33:40;3.22;;;2.92;;
82410;SDS011;72054;55.772;49.096;2023-08-08T02:34:40;4.47;;;3.45;;
82410;SDS011;72054;55.772;49.096;2023-08-08T02:35:41;7.32;;;2.85;;
82410;SDS011;72054;55.772;49.096;2023-08-08T02:36:41;5.05;;;2.60;;
82410;SDS011;72054;55.772;49.096;2023-08-08T02:37:42;4.15;;;2.97;;
82410;SDS011;72054;55.772;49.096;2023-08-08T02:38:42;3.25;;;2.90;;
82410;SDS011;72054;55.772;49.096;2023-08-08T02:40:44;4.40;;;2.78;;
82410;SDS011;72054;55.772;49.096;2023-08-08T02:41:45;6.63;;;2.92;;
82410;SDS011;72054;55.772;49.096;2023-08-08T02:42:45;3.95;;;2.60;;
82410;SDS011;72054;55.772;49.096;2023-08-08T02:43:46;4.68;;;3.00;;
82410;SDS011;72054;55.772;49.096;2023-08-08T02:44:46;5.28;;;3.38;;
82410;SDS011;72054;55.772;49.096;2023-08-08T02:45:47;4.18;;;2.80;;
82410;SDS011;72054;55.772;49.096;2023-08-08T02:46:47;4.70;;;3.00;;
82410;SDS011;72054;55.772;49.096;2023-08-08T02:48:49;7.85;;;3.47;;
82410;SDS011;72054;55.772;49.096;2023-08-08T02:49:49;5.40;;;3.00;;
82410;SDS011;72054;55.772;49.096;2023-08-08T02:50:50;4.88;;;3.20;;
82410;SDS011;72054;55.772;49.096;2023-08-08T02:51:50;3.97;;;3.28;;
82410;SDS011;72054;55.772;49.096;2023-08-08T02:52:51;4.50;;;3.30;;
82410;SDS011;72054;55.772;49.096;2023-08-08T02:53:51;4.53;;;3.40;;
82410;SDS011;72054;55.772;49.096;2023-08-08T02:54:52;6.05;;;3.53;;
82410;SDS011;72054;55.772;49.096;2023-08-08T02:55:52;4.47;;;3.38;;
82410;SDS011;72054;55.772;49.096;2023-08-08T02:56:53;4.72;;;3.08;;
82410;SDS011;72054;55.772;49.096;2023-08-08T02:58:54;5.90;;;3.83;;
82410;SDS011;72054;55.772;49.096;2023-08-08T03:00:55;4.63;;;3.60;;
82410;SDS011;72054;55.772;49.096;2023-08-08T03:01:56;4.28;;;3.63;;
82410;SDS011;72054;55.772;49.096;2023-08-08T03:03:57;4.50;;;3.88;;
82410;SDS011;72054;55.772;49.096;2023-08-08T03:04:58;4.03;;;3.60;;
82410;SDS011;72054;55.772;49.096;2023-08-08T03:06:00;4.97;;;3.78;;
82410;SDS011;72054;55.772;49.096;2023-08-08T03:07:01;3.88;;;3.53;;
82410;SDS011;72054;55.772;49.096;2023-08-08T03:08:04;5.13;;;3.20;;
82410;SDS011;72054;55.772;49.096;2023-08-08T03:10:05;5.28;;;3.80;;
82410;SDS011;72054;55.772;49.096;2023-08-08T03:12:06;5.38;;;3.50;;
82410;SDS011;72054;55.772;49.096;2023-08-08T03:13:08;7.05;;;3.50;;
82410;SDS011;72054;55.772;49.096;2023-08-08T03:15:09;5.63;;;3.67;;
82410;SDS011;72054;55.772;49.096;2023-08-08T03:16:10;6.88;;;3.67;;
82410;SDS011;72054;55.772;49.096;2023-08-08T03:18:11;4.15;;;3.45;;
82410;SDS011;72054;55.772;49.096;2023-08-08T03:19:12;5.47;;;3.55;;
82410;SDS011;72054;55.772;49.096;2023-08-08T03:20:12;6.57;;;3.88;;
82410;SDS011;72054;55.772;49.096;2023-08-08T03:21:13;5.45;;;3.85;;
82410;SDS011;72054;55.772;49.096;2023-08-08T03:22:13;6.88;;;4.72;;
82410;SDS011;72054;55.772;49.096;2023-08-08T03:24:14;4.15;;;3.75;;
82410;SDS011;72054;55.772;49.096;2023-08-08T03:25:15;7.25;;;4.05;;
82410;SDS011;72054;55.772;49.096;2023-08-08T03:26:15;5.07;;;4.68;;
82410;SDS011;72054;55.772;49.096;2023-08-08T03:27:16;5.03;;;4.32;;
82410;SDS011;72054;55.772;49.096;2023-08-08T03:29:17;5.18;;;4.68;;
82410;SDS011;72054;55.772;49.096;2023-08-08T03:31:17;5.45;;;5.00;;
82410;SDS011;72054;55.772;49.096;2023-08-08T03:32:18;4.63;;;4.22;;
82410;SDS011;72054;55.772;49.096;2023-08-08T03:34:19;6.93;;;4.88;;
82410;SDS011;72054;55.772;49.096;2023-08-08T03:36:20;8.15;;;6.50;;
82410;SDS011;72054;55.772;49.096;2023-08-08T03:38:20;5.25;;;4.80;;
82410;SDS011;72054;55.772;49.096;2023-08-08T03:40:21;6.97;;;5.00;;
82410;SDS011;72054;55.772;49.096;2023-08-08T03:42:23;7.63;;;6.93;;
82410;SDS011;72054;55.772;49.096;2023-08-08T03:44:24;5.65;;;5.20;;
82410;SDS011;72054;55.772;49.096;2023-08-08T03:46:25;6.53;;;5.97;;
82410;SDS011;72054;55.772;49.096;2023-08-08T03:48:26;6.13;;;5.72;;
82410;SDS011;72054;55.772;49.096;2023-08-08T03:50:27;6.80;;;6.30;;
82410;SDS011;72054;55.772;49.096;2023-08-08T03:52:27;5.13;;;4.53;;
82410;SDS011;72054;55.772;49.096;2023-08-08T03:53:28;6.57;;;6.10;;
82410;SDS011;72054;55.772;49.096;2023-08-08T03:54:30;7.32;;;6.72;;
82410;SDS011;72054;55.772;49.096;2023-08-08T03:55:31;7.63;;;7.13;;
82410;SDS011;72054;55.772;49.096;2023-08-08T03:56:32;7.47;;;6.75;;
82410;SDS011;72054;55.772;49.096;2023-08-08T03:58:33;5.80;;;5.30;;
82410;SDS011;72054;55.772;49.096;2023-08-08T04:00:34;9.50;;;6.70;;
82410;SDS011;72054;55.772;49.096;2023-08-08T04:02:35;8.32;;;7.55;;
82410;SDS011;72054;55.772;49.096;2023-08-08T04:04:37;8.75;;;8.20;;
82410;SDS011;72054;55.772;49.096;2023-08-08T04:05:38;10.88;;;10.07;;
82410;SDS011;72054;55.772;49.096;2023-08-08T04:07:39;9.40;;;8.70;;
82410;SDS011;72054;55.772;49.096;2023-08-08T04:08:40;10.80;;;9.27;;
82410;SDS011;72054;55.772;49.096;2023-08-08T04:10:42;10.88;;;10.10;;
82410;SDS011;72054;55.772;49.096;2023-08-08T04:11:43;9.30;;;8.70;;
82410;SDS011;72054;55.772;49.096;2023-08-08T04:13:44;12.10;;;11.30;;
82410;SDS011;72054;55.772;49.096;2023-08-08T04:14:44;12.10;;;11.38;;
82410;SDS011;72054;55.772;49.096;2023-08-08T04:15:45;10.10;;;9.40;;
82410;SDS011;72054;55.772;49.096;2023-08-08T04:17:46;8.05;;;7.43;;
82410;SDS011;72054;55.772;49.096;2023-08-08T04:19:47;13.57;;;12.68;;
82410;SDS011;72054;55.772;49.096;2023-08-08T04:20:48;10.85;;;10.05;;
82410;SDS011;72054;55.772;49.096;2023-08-08T04:22:49;12.48;;;11.07;;
82410;SDS011;72054;55.772;49.096;2023-08-08T04:24:50;10.50;;;9.68;;
82410;SDS011;72054;55.772;49.096;2023-08-08T04:25:50;6.95;;;6.35;;
82410;SDS011;72054;55.772;49.096;2023-08-08T04:27:51;11.60;;;10.75;;
82410;SDS011;72054;55.772;49.096;2023-08-08T04:29:52;11.80;;;11.15;;
82410;SDS011;72054;55.772;49.096;2023-08-08T04:31:53;10.65;;;9.90;;
82410;SDS011;72054;55.772;49.096;2023-08-08T04:33:54;13.05;;;12.13;;
82410;SDS011;72054;55.772;49.096;2023-08-08T04:34:59;13.80;;;12.48;;
82410;SDS011;72054;55.772;49.096;2023-08-08T04:37:00;7.60;;;7.10;;
82410;SDS011;72054;55.772;49.096;2023-08-08T04:39:01;15.60;;;14.75;;
82410;SDS011;72054;55.772;49.096;2023-08-08T04:41:03;14.95;;;14.13;;
82410;SDS011;72054;55.772;49.096;2023-08-08T04:43:04;15.43;;;14.65;;
82410;SDS011;72054;55.772;49.096;2023-08-08T04:45:05;15.77;;;14.82;;
82410;SDS011;72054;55.772;49.096;2023-08-08T04:46:07;16.13;;;15.25;;
82410;SDS011;72054;55.772;49.096;2023-08-08T04:47:07;17.65;;;16.75;;
82410;SDS011;72054;55.772;49.096;2023-08-08T04:48:08;20.67;;;19.70;;
82410;SDS011;72054;55.772;49.096;2023-08-08T04:50:09;21.77;;;20.77;;
82410;SDS011;72054;55.772;49.096;2023-08-08T04:51:10;20.05;;;19.05;;
82410;SDS011;72054;55.772;49.096;2023-08-08T04:52:11;22.10;;;20.67;;
82410;SDS011;72054;55.772;49.096;2023-08-08T04:54:11;21.27;;;20.00;;
82410;SDS011;72054;55.772;49.096;2023-08-08T04:56:12;14.30;;;13.45;;
82410;SDS011;72054;55.772;49.096;2023-08-08T04:57:13;26.35;;;25.27;;
82410;SDS011;72054;55.772;49.096;2023-08-08T04:58:14;17.17;;;15.98;;
82410;SDS011;72054;55.772;49.096;2023-08-08T05:00:15;15.32;;;14.43;;
82410;SDS011;72054;55.772;49.096;2023-08-08T05:02:17;28.85;;;27.55;;
82410;SDS011;72054;55.772;49.096;2023-08-08T05:03:18;30.90;;;29.58;;
82410;SDS011;72054;55.772;49.096;2023-08-08T05:04:18;16.75;;;15.75;;
82410;SDS011;72054;55.772;49.096;2023-08-08T05:05:19;33.45;;;31.95;;
82410;SDS011;72054;55.772;49.096;2023-08-08T05:06:19;32.65;;;31.10;;
82410;SDS011;72054;55.772;49.096;2023-08-08T05:08:20;43.30;;;41.50;;
82410;SDS011;72054;55.772;49.096;2023-08-08T05:10:26;31.90;;;30.70;;
82410;SDS011;72054;55.772;49.096;2023-08-08T05:11:26;24.20;;;23.00;;
82410;SDS011;72054;55.772;49.096;2023-08-08T05:12:27;36.38;;;34.95;;
82410;SDS011;72054;55.772;49.096;2023-08-08T05:13:27;20.52;;;19.58;;
82410;SDS011;72054;55.772;49.096;2023-08-08T05:14:28;37.05;;;35.35;;
82410;SDS011;72054;55.772;49.096;2023-08-08T05:16:29;37.15;;;35.75;;
82410;SDS011;72054;55.772;49.096;2023-08-08T05:17:30;33.40;;;32.00;;
82410;SDS011;72054;55.772;49.096;2023-08-08T05:18:32;28.60;;;27.33;;
82410;SDS011;72054;55.772;49.096;2023-08-08T05:19:32;48.13;;;45.95;;
82410;SDS011;72054;55.772;49.096;2023-08-08T05:20:33;44.92;;;42.53;;
82410;SDS011;72054;55.772;49.096;2023-08-08T05:22:34;49.63;;;47.40;;
82410;SDS011;72054;55.772;49.096;2023-08-08T05:23:34;32.42;;;30.77;;
82410;SDS011;72054;55.772;49.096;2023-08-08T05:24:35;31.20;;;29.45;;
82410;SDS011;72054;55.772;49.096;2023-08-08T05:25:36;55.10;;;52.75;;
82410;SDS011;72054;55.772;49.096;2023-08-08T05:26:36;28.02;;;26.50;;
82410;SDS011;72054;55.772;49.096;2023-08-08T05:27:37;28.38;;;27.15;;
82410;SDS011;72054;55.772;49.096;2023-08-08T05:28:37;48.65;;;46.70;;
82410;SDS011;72054;55.772;49.096;2023-08-08T05:29:38;30.58;;;29.30;;
82410;SDS011;72054;55.772;49.096;2023-08-08T05:30:39;50.15;;;48.20;;
82410;SDS011;72054;55.772;49.096;2023-08-08T05:31:39;59.67;;;57.35;;
82410;SDS011;72054;55.772;49.096;2023-08-08T05:32:40;40.13;;;38.42;;
82410;SDS011;72054;55.772;49.096;2023-08-08T05:33:40;41.40;;;39.75;;
82410;SDS011;72054;55.772;49.096;2023-08-08T05:34:41;36.60;;;34.95;;
82410;SDS011;72054;55.772;49.096;2023-08-08T05:35:42;79.72;;;76.88;;
82410;SDS011;72054;55.772;49.096;2023-08-08T05:36:42;59.97;;;57.78;;
82410;SDS011;72054;55.772;49.096;2023-08-08T05:37:43;36.38;;;34.97;;
82410;SDS011;72054;55.772;49.096;2023-08-08T05:38:43;59.20;;;56.90;;
82410;SDS011;72054;55.772;49.096;2023-08-08T05:39:44;40.25;;;38.63;;
82410;SDS011;72054;55.772;49.096;2023-08-08T05:40:45;34.20;;;32.80;;
82410;SDS011;72054;55.772;49.096;2023-08-08T05:41:45;36.72;;;34.60;;
82410;SDS011;72054;55.772;49.096;2023-08-08T05:42:46;55.13;;;52.95;;
82410;SDS011;72054;55.772;49.096;2023-08-08T05:43:46;63.38;;;61.17;;
82410;SDS011;72054;55.772;49.096;2023-08-08T05:44:47;40.40;;;38.83;;
82410;SDS011;72054;55.772;49.096;2023-08-08T05:45:47;33.95;;;32.58;;
82410;SDS011;72054;55.772;49.096;2023-08-08T05:46:48;32.30;;;31.08;;
82410;SDS011;72054;55.772;49.096;2023-08-08T05:47:48;41.35;;;39.67;;
82410;SDS011;72054;55.772;49.096;2023-08-08T05:48:49;39.20;;;37.65;;
82410;SDS011;72054;55.772;49.096;2023-08-08T05:49:49;43.05;;;41.35;;
82410;SDS011;72054;55.772;49.096;2023-08-08T05:50:50;62.63;;;60.25;;
82410;SDS011;72054;55.772;49.096;2023-08-08T05:51:50;57.95;;;55.92;;
82410;SDS011;72054;55.772;49.096;2023-08-08T05:52:51;62.10;;;59.70;;
82410;SDS011;72054;55.772;49.096;2023-08-08T05:53:51;64.60;;;62.28;;
82410;SDS011;72054;55.772;49.096;2023-08-08T05:54:52;45.30;;;43.38;;
82410;SDS011;72054;55.772;49.096;2023-08-08T05:55:52;60.63;;;58.40;;
82410;SDS011;72054;55.772;49.096;2023-08-08T05:56:53;65.88;;;63.17;;
82410;SDS011;72054;55.772;49.096;2023-08-08T05:57:54;47.33;;;45.42;;
82410;SDS011;72054;55.772;49.096;2023-08-08T05:58:54;61.40;;;59.10;;
82410;SDS011;72054;55.772;49.096;2023-08-08T05:59:55;57.58;;;55.38;;
82410;SDS011;72054;55.772;49.096;2023-08-08T06:00:55;76.65;;;74.05;;
82410;SDS011;72054;55.772;49.096;2023-08-08T06:01:56;68.28;;;65.75;;
82410;SDS011;72054;55.772;49.096;2023-08-08T06:02:56;82.22;;;79.30;;
82410;SDS011;72054;55.772;49.096;2023-08-08T06:03:57;86.38;;;83.43;;
82410;SDS011;72054;55.772;49.096;2023-08-08T06:04:59;80.50;;;77.60;;
82410;SDS011;72054;55.772;49.096;2023-08-08T06:05:59;62.47;;;60.22;;
82410;SDS011;72054;55.772;49.096;2023-08-08T06:07:00;84.63;;;81.50;;
82410;SDS011;72054;55.772;49.096;2023-08-08T06:08:00;87.13;;;84.00;;
82410;SDS011;72054;55.772;49.096;2023-08-08T06:09:01;88.60;;;85.57;;
82410;SDS011;72054;55.772;49.096;2023-08-08T06:10:01;102.70;;;99.28;;
82410;SDS011;72054;55.772;49.096;2023-08-08T06:11:02;50.63;;;48.72;;
82410;SDS011;72054;55.772;49.096;2023-08-08T06:12:03;93.53;;;90.32;;
82410;SDS011;72054;55.772;49.096;2023-08-08T06:13:04;89.65;;;86.68;;
82410;SDS011;72054;55.772;49.096;2023-08-08T06:14:04;92.68;;;89.63;;
82410;SDS011;72054;55.772;49.096;2023-08-08T06:15:05;83.60;;;80.63;;
82410;SDS011;72054;55.772;49.096;2023-08-08T06:16:06;84.03;;;81.20;;
82410;SDS011;72054;55.772;49.096;2023-08-08T06:17:07;78.60;;;75.72;;
82410;SDS011;72054;55.772;49.096;2023-08-08T06:18:07;85.28;;;82.30;;
82410;SDS011;72054;55.772;49.096;2023-08-08T06:19:08;80.45;;;77.65;;
82410;SDS011;72054;55.772;49.096;2023-08-08T06:20:08;76.00;;;73.15;;
82410;SDS011;72054;55.772;49.096;2023-08-08T06:21:09;80.45;;;77.43;;
82410;SDS011;72054;55.772;49.096;2023-08-08T06:22:11;78.40;;;75.68;;
82410;SDS011;72054;55.772;49.096;2023-08-08T06:23:12;88.97;;;85.97;;
82410;SDS011;72054;55.772;49.096;2023-08-08T06:24:12;95.30;;;91.97;;
82410;SDS011;72054;55.772;49.096;2023-08-08T06:25:13;48.90;;;47.17;;
82410;SDS011;72054;55.772;49.096;2023-08-08T06:26:14;92.60;;;89.32;;
82410;SDS011;72054;55.772;49.096;2023-08-08T06:27:14;96.47;;;93.13;;
82410;SDS011;72054;55.772;49.096;2023-08-08T06:28:15;53.38;;;51.20;;
82410;SDS011;72054;55.772;49.096;2023-08-08T06:29:15;81.47;;;78.50;;
82410;SDS011;72054;55.772;49.096;2023-08-08T06:30:16;92.70;;;89.45;;
82410;SDS011;72054;55.772;49.096;2023-08-08T06:31:17;86.43;;;83.50;;
82410;SDS011;72054;55.772;49.096;2023-08-08T06:32:18;63.97;;;61.70;;
82410;SDS011;72054;55.772;49.096;2023-08-08T06:33:19;86.50;;;83.47;;
82410;SDS011;72054;55.772;49.096;2023-08-08T06:34:19;84.80;;;81.72;;
82410;SDS011;72054;55.772;49.096;2023-08-08T06:35:20;55.15;;;53.10;;
82410;SDS011;72054;55.772;49.096;2023-08-08T06:36:20;83.75;;;80.90;;
82410;SDS011;72054;55.772;49.096;2023-08-08T06:37:21;89.93;;;86.75;;
82410;SDS011;72054;55.772;49.096;2023-08-08T06:38:22;109.32;;;105.68;;
82410;SDS011;72054;55.772;49.096;2023-08-08T06:39:22;109.85;;;106.38;;
82410;SDS011;72054;55.772;49.096;2023-08-08T06:40:23;105.30;;;101.68;;
82410;SDS011;72054;55.772;49.096;2023-08-08T06:41:24;88.22;;;85.20;;
82410;SDS011;72054;55.772;49.096;2023-08-08T06:42:24;91.85;;;88.63;;
82410;SDS011;72054;55.772;49.096;2023-08-08T06:43:25;90.68;;;87.38;;
82410;SDS011;72054;55.772;49.096;2023-08-08T06:44:25;87.07;;;84.13;;
82410;SDS011;72054;55.772;49.096;2023-08-08T06:45:26;76.22;;;73.53;;
82410;SDS011;72054;55.772;49.096;2023-08-08T06:46:26;50.58;;;48.78;;
82410;SDS011;72054;55.772;49.096;2023-08-08T06:47:27;83.53;;;80.63;;
82410;SDS011;72054;55.772;49.096;2023-08-08T06:48:27;76.45;;;73.68;;
82410;SDS011;72054;55.772;49.096;2023-08-08T06:49:28;50.75;;;48.70;;
82410;SDS011;72054;55.772;49.096;2023-08-08T06:50:29;51.88;;;49.97;;
82410;SDS011;72054;55.772;49.096;2023-08-08T06:51:29;68.90;;;66.45;;
82410;SDS011;72054;55.772;49.096;2023-08-08T06:52:30;87.35;;;84.40;;
82410;SDS011;72054;55.772;49.096;2023-08-08T06:53:31;94.00;;;90.45;;
82410;SDS011;72054;55.772;49.096;2023-08-08T06:54:31;57.88;;;55.45;;
82410;SDS011;72054;55.772;49.096;2023-08-08T06:55:32;94.38;;;91.10;;